sensor_id;sensor_type;location;lat;lon;timestamp;P1;durP1;ratioP1;P2;durP2;ratioP2
20749;SDS011;10535;50.664;4.564;2023-04-01T00:01:34;3.53;;;1.27;;
20749;SDS011;10535;50.664;4.564;2023-04-01T00:04:00;5.33;;;1.37;;
20749;SDS011;10535;50.664;4.564;2023-04-01T00:06:27;3.63;;;1.57;;
20749;SDS011;10535;50.664;4.564;2023-04-01T00:08:53;1.67;;;1.17;;
20749;SDS011;10535;50.664;4.564;2023-04-01T00:11:19;4.67;;;1.50;;
20749;SDS011;10535;50.664;4.564;2023-04-01T00:13:46;1.97;;;1.40;;
20749;SDS011;10535;50.664;4.564;2023-04-01T00:16:12;2.77;;;1.70;;
20749;SDS011;10535;50.664;4.564;2023-04-01T00:18:38;5.00;;;1.63;;
20749;SDS011;10535;50.664;4.564;2023-04-01T00:21:04;5.20;;;1.80;;
20749;SDS011;10535;50.664;4.564;2023-04-01T00:23:30;5.83;;;2.33;;
20749;SDS011;10535;50.664;4.564;2023-04-01T00:25:56;4.30;;;1.77;;
20749;SDS011;10535;50.664;4.564;2023-04-01T00:28:24;7.33;;;2.30;;
20749;SDS011;10535;50.664;4.564;2023-04-01T00:30:49;5.37;;;2.03;;
20749;SDS011;10535;50.664;4.564;2023-04-01T00:33:15;7.83;;;2.10;;
20749;SDS011;10535;50.664;4.564;2023-04-01T00:35:41;6.53;;;2.37;;
20749;SDS011;10535;50.664;4.564;2023-04-01T00:38:07;15.87;;;1.73;;
20749;SDS011;10535;50.664;4.564;2023-04-01T00:40:51;5.53;;;1.70;;
20749;SDS011;10535;50.664;4.564;2023-04-01T00:43:23;2.13;;;1.00;;
20749;SDS011;10535;50.664;4.564;2023-04-01T00:45:49;10.30;;;1.63;;
20749;SDS011;10535;50.664;4.564;2023-04-01T00:48:16;2.00;;;1.00;;
20749;SDS011;10535;50.664;4.564;2023-04-01T00:50:52;2.93;;;1.30;;
20749;SDS011;10535;50.664;4.564;2023-04-01T00:53:22;0.93;;;0.60;;
20749;SDS011;10535;50.664;4.564;2023-04-01T00:55:56;1.73;;;0.73;;
20749;SDS011;10535;50.664;4.564;2023-04-01T00:58:37;1.70;;;0.80;;
20749;SDS011;10535;50.664;4.564;2023-04-01T01:01:06;3.27;;;1.17;;
20749;SDS011;10535;50.664;4.564;2023-04-01T01:03:36;1.93;;;0.97;;
20749;SDS011;10535;50.664;4.564;2023-04-01T01:08:39;3.80;;;1.43;;
20749;SDS011;10535;50.664;4.564;2023-04-01T01:11:17;12.03;;;1.70;;
20749;SDS011;10535;50.664;4.564;2023-04-01T01:14:15;5.97;;;1.80;;
20749;SDS011;10535;50.664;4.564;2023-04-01T01:16:42;5.33;;;2.10;;
20749;SDS011;10535;50.664;4.564;2023-04-01T01:27:45;2.57;;;1.77;;
20749;SDS011;10535;50.664;4.564;2023-04-01T01:38:16;5.30;;;2.57;;
20749;SDS011;10535;50.664;4.564;2023-04-01T01:40:45;4.07;;;1.50;;
20749;SDS011;10535;50.664;4.564;2023-04-01T01:43:17;3.43;;;1.60;;
20749;SDS011;10535;50.664;4.564;2023-04-01T01:45:46;5.30;;;2.23;;
20749;SDS011;10535;50.664;4.564;2023-04-01T01:48:15;2.10;;;1.10;;
20749;SDS011;10535;50.664;4.564;2023-04-01T01:50:43;2.20;;;1.70;;
20749;SDS011;10535;50.664;4.564;2023-04-01T01:53:11;6.43;;;1.73;;
20749;SDS011;10535;50.664;4.564;2023-04-01T01:55:39;0.83;;;0.80;;
20749;SDS011;10535;50.664;4.564;2023-04-01T01:58:23;1.93;;;0.73;;
20749;SDS011;10535;50.664;4.564;2023-04-01T02:00:55;2.30;;;1.27;;
20749;SDS011;10535;50.664;4.564;2023-04-01T02:03:25;1.73;;;1.10;;
20749;SDS011;10535;50.664;4.564;2023-04-01T02:05:54;1.70;;;0.60;;
20749;SDS011;10535;50.664;4.564;2023-04-01T02:08:31;2.77;;;0.90;;
20749;SDS011;10535;50.664;4.564;2023-04-01T02:11:06;0.87;;;0.87;;
20749;SDS011;10535;50.664;4.564;2023-04-01T02:13:38;1.30;;;1.13;;
20749;SDS011;10535;50.664;4.564;2023-04-01T02:16:16;0.87;;;0.80;;
20749;SDS011;10535;50.664;4.564;2023-04-01T02:18:47;1.53;;;0.80;;
20749;SDS011;10535;50.664;4.564;2023-04-01T02:21:16;1.63;;;1.03;;
20749;SDS011;10535;50.664;4.564;2023-04-01T02:23:44;1.37;;;0.80;;
20749;SDS011;10535;50.664;4.564;2023-04-01T02:26:11;1.83;;;1.00;;
20749;SDS011;10535;50.664;4.564;2023-04-01T02:28:39;4.97;;;1.40;;
20749;SDS011;10535;50.664;4.564;2023-04-01T02:31:08;3.73;;;1.20;;
20749;SDS011;10535;50.664;4.564;2023-04-01T02:33:35;4.83;;;2.23;;
20749;SDS011;10535;50.664;4.564;2023-04-01T02:36:02;2.10;;;1.47;;
20749;SDS011;10535;50.664;4.564;2023-04-01T02:38:29;3.17;;;1.90;;
20749;SDS011;10535;50.664;4.564;2023-04-01T02:40:59;2.97;;;1.90;;
20749;SDS011;10535;50.664;4.564;2023-04-01T02:43:27;5.60;;;2.10;;
20749;SDS011;10535;50.664;4.564;2023-04-01T02:45:53;4.17;;;2.30;;
20749;SDS011;10535;50.664;4.564;2023-04-01T02:48:19;3.53;;;2.00;;
20749;SDS011;10535;50.664;4.564;2023-04-01T02:50:45;4.47;;;2.63;;
20749;SDS011;10535;50.664;4.564;2023-04-01T02:53:10;3.90;;;1.90;;
20749;SDS011;10535;50.664;4.564;2023-04-01T02:55:37;3.63;;;2.77;;
20749;SDS011;10535;50.664;4.564;2023-04-01T02:58:02;5.83;;;2.30;;
20749;SDS011;10535;50.664;4.564;2023-04-01T03:00:28;5.00;;;2.23;;
20749;SDS011;10535;50.664;4.564;2023-04-01T03:02:54;5.33;;;2.80;;
20749;SDS011;10535;50.664;4.564;2023-04-01T03:05:21;5.77;;;2.40;;
20749;SDS011;10535;50.664;4.564;2023-04-01T03:07:46;7.17;;;2.73;;
20749;SDS011;10535;50.664;4.564;2023-04-01T03:10:12;10.10;;;2.90;;
20749;SDS011;10535;50.664;4.564;2023-04-01T03:12:38;7.97;;;2.80;;
20749;SDS011;10535;50.664;4.564;2023-04-01T03:15:03;5.83;;;2.77;;
20749;SDS011;10535;50.664;4.564;2023-04-01T03:17:30;3.50;;;2.57;;
20749;SDS011;10535;50.664;4.564;2023-04-01T03:19:55;4.83;;;2.47;;
20749;SDS011;10535;50.664;4.564;2023-04-01T03:22:21;8.43;;;2.77;;
20749;SDS011;10535;50.664;4.564;2023-04-01T03:24:47;5.33;;;2.40;;
20749;SDS011;10535;50.664;4.564;2023-04-01T03:27:13;7.03;;;2.60;;
20749;SDS011;10535;50.664;4.564;2023-04-01T03:29:39;4.27;;;2.60;;
20749;SDS011;10535;50.664;4.564;2023-04-01T03:32:05;8.00;;;2.40;;
20749;SDS011;10535;50.664;4.564;2023-04-01T03:34:31;4.50;;;1.97;;
20749;SDS011;10535;50.664;4.564;2023-04-01T03:36:57;3.23;;;2.20;;
20749;SDS011;10535;50.664;4.564;2023-04-01T03:39:23;4.30;;;2.40;;
20749;SDS011;10535;50.664;4.564;2023-04-01T03:41:48;7.90;;;3.10;;
20749;SDS011;10535;50.664;4.564;2023-04-01T03:44:14;4.13;;;2.33;;
20749;SDS011;10535;50.664;4.564;2023-04-01T03:46:40;4.00;;;2.83;;
20749;SDS011;10535;50.664;4.564;2023-04-01T03:49:06;5.47;;;2.27;;
20749;SDS011;10535;50.664;4.564;2023-04-01T03:51:40;5.07;;;2.40;;
20749;SDS011;10535;50.664;4.564;2023-04-01T03:54:07;5.03;;;2.27;;
20749;SDS011;10535;50.664;4.564;2023-04-01T03:56:33;5.03;;;2.93;;
20749;SDS011;10535;50.664;4.564;2023-04-01T03:59:01;5.00;;;1.97;;
20749;SDS011;10535;50.664;4.564;2023-04-01T04:01:28;4.63;;;2.30;;
20749;SDS011;10535;50.664;4.564;2023-04-01T04:03:54;4.80;;;2.43;;
20749;SDS011;10535;50.664;4.564;2023-04-01T04:06:21;4.73;;;3.17;;
20749;SDS011;10535;50.664;4.564;2023-04-01T04:08:47;6.50;;;3.17;;
20749;SDS011;10535;50.664;4.564;2023-04-01T04:11:13;7.07;;;2.77;;
20749;SDS011;10535;50.664;4.564;2023-04-01T04:13:39;9.00;;;3.43;;
20749;SDS011;10535;50.664;4.564;2023-04-01T04:16:05;7.53;;;4.93;;
20749;SDS011;10535;50.664;4.564;2023-04-01T04:18:30;9.37;;;3.90;;
20749;SDS011;10535;50.664;4.564;2023-04-01T04:20:56;8.97;;;4.27;;
20749;SDS011;10535;50.664;4.564;2023-04-01T04:23:22;11.53;;;4.30;;
20749;SDS011;10535;50.664;4.564;2023-04-01T04:26:01;10.43;;;4.23;;
20749;SDS011;10535;50.664;4.564;2023-04-01T04:28:30;7.33;;;4.50;;
20749;SDS011;10535;50.664;4.564;2023-04-01T04:30:56;9.70;;;4.03;;
20749;SDS011;10535;50.664;4.564;2023-04-01T04:33:23;9.60;;;4.07;;
20749;SDS011;10535;50.664;4.564;2023-04-01T04:35:49;10.43;;;5.37;;
20749;SDS011;10535;50.664;4.564;2023-04-01T04:38:15;8.70;;;4.63;;
20749;SDS011;10535;50.664;4.564;2023-04-01T04:40:41;8.53;;;3.73;;
20749;SDS011;10535;50.664;4.564;2023-04-01T04:43:09;7.90;;;4.80;;
20749;SDS011;10535;50.664;4.564;2023-04-01T04:45:36;8.33;;;4.37;;
20749;SDS011;10535;50.664;4.564;2023-04-01T04:48:01;9.17;;;4.20;;
20749;SDS011;10535;50.664;4.564;2023-04-01T04:50:27;8.83;;;4.27;;
20749;SDS011;10535;50.664;4.564;2023-04-01T04:52:53;9.60;;;4.50;;
20749;SDS011;10535;50.664;4.564;2023-04-01T04:55:19;6.23;;;3.43;;
20749;SDS011;10535;50.664;4.564;2023-04-01T04:57:45;6.97;;;4.07;;
20749;SDS011;10535;50.664;4.564;2023-04-01T05:00:10;7.93;;;3.73;;
20749;SDS011;10535;50.664;4.564;2023-04-01T05:02:36;7.10;;;3.60;;
20749;SDS011;10535;50.664;4.564;2023-04-01T05:05:02;6.27;;;3.47;;
20749;SDS011;10535;50.664;4.564;2023-04-01T05:07:29;5.83;;;3.57;;
20749;SDS011;10535;50.664;4.564;2023-04-01T05:09:54;6.07;;;3.20;;
20749;SDS011;10535;50.664;4.564;2023-04-01T05:12:20;4.53;;;3.17;;
20749;SDS011;10535;50.664;4.564;2023-04-01T05:14:46;13.33;;;3.27;;
20749;SDS011;10535;50.664;4.564;2023-04-01T05:17:11;7.50;;;3.60;;
20749;SDS011;10535;50.664;4.564;2023-04-01T05:19:38;4.00;;;2.40;;
20749;SDS011;10535;50.664;4.564;2023-04-01T05:22:04;4.53;;;2.67;;
20749;SDS011;10535;50.664;4.564;2023-04-01T05:24:30;5.03;;;2.47;;
20749;SDS011;10535;50.664;4.564;2023-04-01T05:26:56;3.73;;;2.47;;
20749;SDS011;10535;50.664;4.564;2023-04-01T05:29:22;5.07;;;3.23;;
20749;SDS011;10535;50.664;4.564;2023-04-01T05:31:48;3.90;;;2.33;;
20749;SDS011;10535;50.664;4.564;2023-04-01T05:34:14;5.00;;;2.80;;
20749;SDS011;10535;50.664;4.564;2023-04-01T05:36:40;3.57;;;2.70;;
20749;SDS011;10535;50.664;4.564;2023-04-01T05:39:06;2.63;;;2.27;;
20749;SDS011;10535;50.664;4.564;2023-04-01T05:41:34;5.90;;;3.23;;
20749;SDS011;10535;50.664;4.564;2023-04-01T05:44:00;4.67;;;2.50;;
20749;SDS011;10535;50.664;4.564;2023-04-01T05:46:26;4.13;;;3.20;;
20749;SDS011;10535;50.664;4.564;2023-04-01T05:48:52;2.10;;;1.50;;
20749;SDS011;10535;50.664;4.564;2023-04-01T05:51:17;7.40;;;2.30;;
20749;SDS011;10535;50.664;4.564;2023-04-01T05:53:43;4.20;;;3.00;;
20749;SDS011;10535;50.664;4.564;2023-04-01T05:56:09;5.20;;;2.53;;
20749;SDS011;10535;50.664;4.564;2023-04-01T05:58:35;7.47;;;3.33;;
20749;SDS011;10535;50.664;4.564;2023-04-01T06:01:05;3.10;;;2.37;;
20749;SDS011;10535;50.664;4.564;2023-04-01T06:03:35;3.17;;;2.13;;
20749;SDS011;10535;50.664;4.564;2023-04-01T06:06:01;6.80;;;2.67;;
20749;SDS011;10535;50.664;4.564;2023-04-01T06:08:30;5.47;;;3.03;;
20749;SDS011;10535;50.664;4.564;2023-04-01T06:16:47;4.13;;;2.90;;
20749;SDS011;10535;50.664;4.564;2023-04-01T06:27:48;7.03;;;3.80;;
20749;SDS011;10535;50.664;4.564;2023-04-01T06:30:38;8.20;;;3.97;;
20749;SDS011;10535;50.664;4.564;2023-04-01T06:39:22;5.17;;;3.03;;
20749;SDS011;10535;50.664;4.564;2023-04-01T06:44:44;4.17;;;2.83;;
20749;SDS011;10535;50.664;4.564;2023-04-01T06:50:11;7.63;;;3.00;;
20749;SDS011;10535;50.664;4.564;2023-04-01T06:56:03;4.33;;;2.77;;
20749;SDS011;10535;50.664;4.564;2023-04-01T06:58:50;4.73;;;2.77;;
20749;SDS011;10535;50.664;4.564;2023-04-01T07:01:34;4.83;;;2.30;;
20749;SDS011;10535;50.664;4.564;2023-04-01T07:04:14;3.93;;;2.83;;
20749;SDS011;10535;50.664;4.564;2023-04-01T07:06:50;5.00;;;3.00;;
20749;SDS011;10535;50.664;4.564;2023-04-01T07:09:52;6.30;;;2.60;;
20749;SDS011;10535;50.664;4.564;2023-04-01T07:15:28;4.10;;;2.90;;
20749;SDS011;10535;50.664;4.564;2023-04-01T07:18:02;5.10;;;2.67;;
20749;SDS011;10535;50.664;4.564;2023-04-01T07:20:49;4.37;;;2.60;;
20749;SDS011;10535;50.664;4.564;2023-04-01T07:23:24;4.50;;;2.67;;
20749;SDS011;10535;50.664;4.564;2023-04-01T07:26:01;5.93;;;3.53;;
20749;SDS011;10535;50.664;4.564;2023-04-01T07:28:35;6.20;;;3.03;;
20749;SDS011;10535;50.664;4.564;2023-04-01T07:33:35;4.83;;;2.53;;
20749;SDS011;10535;50.664;4.564;2023-04-01T07:49:30;2.20;;;1.80;;
20749;SDS011;10535;50.664;4.564;2023-04-01T07:54:45;4.37;;;2.20;;
20749;SDS011;10535;50.664;4.564;2023-04-01T07:57:31;5.47;;;1.73;;
20749;SDS011;10535;50.664;4.564;2023-04-01T08:00:24;3.27;;;2.17;;
20749;SDS011;10535;50.664;4.564;2023-04-01T08:03:28;4.03;;;2.17;;
20749;SDS011;10535;50.664;4.564;2023-04-01T08:06:10;2.87;;;2.50;;
20749;SDS011;10535;50.664;4.564;2023-04-01T08:14:01;4.97;;;3.13;;
20749;SDS011;10535;50.664;4.564;2023-04-01T08:22:04;5.33;;;2.80;;
20749;SDS011;10535;50.664;4.564;2023-04-01T08:24:50;2.17;;;1.53;;
20749;SDS011;10535;50.664;4.564;2023-04-01T08:27:23;2.43;;;2.07;;
20749;SDS011;10535;50.664;4.564;2023-04-01T08:30:01;6.50;;;1.97;;
20749;SDS011;10535;50.664;4.564;2023-04-01T08:32:29;3.17;;;1.80;;
20749;SDS011;10535;50.664;4.564;2023-04-01T08:35:08;2.10;;;1.50;;
20749;SDS011;10535;50.664;4.564;2023-04-01T08:37:42;2.97;;;2.37;;
20749;SDS011;10535;50.664;4.564;2023-04-01T08:56:36;2.57;;;1.80;;
20749;SDS011;10535;50.664;4.564;2023-04-01T09:22:56;4.73;;;1.97;;
20749;SDS011;10535;50.664;4.564;2023-04-01T09:34:25;2.63;;;1.53;;
20749;SDS011;10535;50.664;4.564;2023-04-01T09:45:07;2.33;;;1.37;;
20749;SDS011;10535;50.664;4.564;2023-04-01T09:57:06;4.67;;;1.30;;
20749;SDS011;10535;50.664;4.564;2023-04-01T10:13:13;2.17;;;1.33;;
20749;SDS011;10535;50.664;4.564;2023-04-01T10:15:56;1.53;;;1.40;;
20749;SDS011;10535;50.664;4.564;2023-04-01T11:14:09;2.43;;;1.63;;
20749;SDS011;10535;50.664;4.564;2023-04-01T11:21:46;5.10;;;1.67;;
20749;SDS011;10535;50.664;4.564;2023-04-01T11:32:59;2.00;;;1.57;;
20749;SDS011;10535;50.664;4.564;2023-04-01T11:35:55;3.50;;;1.80;;
20749;SDS011;10535;50.664;4.564;2023-04-01T11:46:20;3.77;;;1.70;;
20749;SDS011;10535;50.664;4.564;2023-04-01T11:51:55;2.30;;;2.03;;
20749;SDS011;10535;50.664;4.564;2023-04-01T12:08:27;2.30;;;1.30;;
20749;SDS011;10535;50.664;4.564;2023-04-01T12:13:59;1.27;;;1.17;;
20749;SDS011;10535;50.664;4.564;2023-04-01T12:16:49;1.97;;;1.30;;
20749;SDS011;10535;50.664;4.564;2023-04-01T12:27:40;3.23;;;2.37;;
20749;SDS011;10535;50.664;4.564;2023-04-01T12:30:31;2.53;;;1.43;;
20749;SDS011;10535;50.664;4.564;2023-04-01T12:35:36;1.43;;;1.30;;
20749;SDS011;10535;50.664;4.564;2023-04-01T12:49:01;2.20;;;1.40;;
20749;SDS011;10535;50.664;4.564;2023-04-01T13:11:09;1.67;;;1.50;;
20749;SDS011;10535;50.664;4.564;2023-04-01T13:16:46;2.50;;;1.50;;
20749;SDS011;10535;50.664;4.564;2023-04-01T13:22:39;1.57;;;1.47;;
20749;SDS011;10535;50.664;4.564;2023-04-01T13:25:30;3.27;;;1.87;;
20749;SDS011;10535;50.664;4.564;2023-04-01T13:28:11;1.87;;;1.67;;
20749;SDS011;10535;50.664;4.564;2023-04-01T13:33:27;3.90;;;1.33;;
20749;SDS011;10535;50.664;4.564;2023-04-01T13:36:27;3.53;;;1.50;;
20749;SDS011;10535;50.664;4.564;2023-04-01T13:48:00;1.73;;;1.60;;
20749;SDS011;10535;50.664;4.564;2023-04-01T13:50:44;2.97;;;1.50;;
20749;SDS011;10535;50.664;4.564;2023-04-01T13:53:39;2.03;;;1.80;;
20749;SDS011;10535;50.664;4.564;2023-04-01T13:56:16;1.63;;;1.53;;
20749;SDS011;10535;50.664;4.564;2023-04-01T14:02:13;3.90;;;2.10;;
20749;SDS011;10535;50.664;4.564;2023-04-01T14:04:53;3.20;;;1.90;;
20749;SDS011;10535;50.664;4.564;2023-04-01T14:09:59;2.37;;;1.23;;
20749;SDS011;10535;50.664;4.564;2023-04-01T14:15:16;2.50;;;1.77;;
20749;SDS011;10535;50.664;4.564;2023-04-01T14:18:00;2.40;;;1.83;;
20749;SDS011;10535;50.664;4.564;2023-04-01T14:20:32;1.87;;;1.50;;
20749;SDS011;10535;50.664;4.564;2023-04-01T14:26:01;1.03;;;1.00;;
20749;SDS011;10535;50.664;4.564;2023-04-01T14:31:42;2.20;;;1.60;;
20749;SDS011;10535;50.664;4.564;2023-04-01T14:42:59;3.43;;;1.93;;
20749;SDS011;10535;50.664;4.564;2023-04-01T14:48:38;2.10;;;1.27;;
20749;SDS011;10535;50.664;4.564;2023-04-01T14:54:36;2.77;;;1.57;;
20749;SDS011;10535;50.664;4.564;2023-04-01T14:56:50;1.73;;;1.43;;
20749;SDS011;10535;50.664;4.564;2023-04-01T14:59:28;4.30;;;1.97;;
20749;SDS011;10535;50.664;4.564;2023-04-01T15:01:59;1.77;;;1.10;;
20749;SDS011;10535;50.664;4.564;2023-04-01T15:07:33;1.50;;;1.40;;
20749;SDS011;10535;50.664;4.564;2023-04-01T15:10:27;2.33;;;1.30;;
20749;SDS011;10535;50.664;4.564;2023-04-01T15:18:17;1.13;;;0.93;;
20749;SDS011;10535;50.664;4.564;2023-04-01T15:23:49;1.03;;;0.90;;
20749;SDS011;10535;50.664;4.564;2023-04-01T15:34:37;1.00;;;0.90;;
20749;SDS011;10535;50.664;4.564;2023-04-01T15:37:34;1.23;;;0.73;;
20749;SDS011;10535;50.664;4.564;2023-04-01T15:51:22;0.70;;;0.70;;
20749;SDS011;10535;50.664;4.564;2023-04-01T16:17:05;2.20;;;0.73;;
20749;SDS011;10535;50.664;4.564;2023-04-01T16:22:25;0.90;;;0.60;;
20749;SDS011;10535;50.664;4.564;2023-04-01T16:33:38;1.50;;;1.23;;
20749;SDS011;10535;50.664;4.564;2023-04-01T16:36:37;2.10;;;1.00;;
20749;SDS011;10535;50.664;4.564;2023-04-01T16:50:59;2.67;;;1.30;;
20749;SDS011;10535;50.664;4.564;2023-04-01T16:53:36;1.13;;;1.00;;
20749;SDS011;10535;50.664;4.564;2023-04-01T16:56:15;2.70;;;0.93;;
20749;SDS011;10535;50.664;4.564;2023-04-01T17:01:21;0.80;;;0.80;;
20749;SDS011;10535;50.664;4.564;2023-04-01T17:03:53;1.20;;;0.90;;
20749;SDS011;10535;50.664;4.564;2023-04-01T17:06:28;1.20;;;1.10;;
20749;SDS011;10535;50.664;4.564;2023-04-01T17:17:50;3.03;;;2.23;;
20749;SDS011;10535;50.664;4.564;2023-04-01T17:20:46;1.20;;;1.10;;
20749;SDS011;10535;50.664;4.564;2023-04-01T17:23:37;1.20;;;1.10;;
20749;SDS011;10535;50.664;4.564;2023-04-01T17:29:25;1.00;;;1.00;;
20749;SDS011;10535;50.664;4.564;2023-04-01T18:07:13;2.67;;;1.87;;
20749;SDS011;10535;50.664;4.564;2023-04-01T18:09:58;2.13;;;1.57;;
20749;SDS011;10535;50.664;4.564;2023-04-01T18:18:48;3.63;;;1.53;;
20749;SDS011;10535;50.664;4.564;2023-04-01T18:26:35;1.77;;;1.60;;
20749;SDS011;10535;50.664;4.564;2023-04-01T18:31:51;1.53;;;1.43;;
20749;SDS011;10535;50.664;4.564;2023-04-01T18:40:04;1.30;;;1.20;;
20749;SDS011;10535;50.664;4.564;2023-04-01T18:42:41;2.50;;;1.30;;
20749;SDS011;10535;50.664;4.564;2023-04-01T18:45:32;1.60;;;1.50;;
20749;SDS011;10535;50.664;4.564;2023-04-01T18:48:12;1.97;;;1.30;;
20749;SDS011;10535;50.664;4.564;2023-04-01T18:51:01;2.17;;;1.97;;
20749;SDS011;10535;50.664;4.564;2023-04-01T18:53:37;1.90;;;1.80;;
20749;SDS011;10535;50.664;4.564;2023-04-01T18:56:15;3.43;;;2.20;;
20749;SDS011;10535;50.664;4.564;2023-04-01T18:59:04;2.33;;;2.13;;
20749;SDS011;10535;50.664;4.564;2023-04-01T19:04:39;2.50;;;2.20;;
20749;SDS011;10535;50.664;4.564;2023-04-01T19:24:03;7.07;;;4.10;;
20749;SDS011;10535;50.664;4.564;2023-04-01T19:27:14;10.87;;;6.10;;
20749;SDS011;10535;50.664;4.564;2023-04-01T19:30:11;6.63;;;4.43;;
20749;SDS011;10535;50.664;4.564;2023-04-01T19:33:00;4.30;;;3.33;;
20749;SDS011;10535;50.664;4.564;2023-04-01T19:38:31;3.43;;;2.37;;
20749;SDS011;10535;50.664;4.564;2023-04-01T19:41:30;7.50;;;3.77;;
20749;SDS011;10535;50.664;4.564;2023-04-01T19:44:36;5.03;;;3.90;;
20749;SDS011;10535;50.664;4.564;2023-04-01T19:47:20;5.10;;;3.60;;
20749;SDS011;10535;50.664;4.564;2023-04-01T19:52:44;6.47;;;4.27;;
20749;SDS011;10535;50.664;4.564;2023-04-01T19:55:30;6.57;;;4.43;;
20749;SDS011;10535;50.664;4.564;2023-04-01T20:00:57;8.00;;;5.23;;
20749;SDS011;10535;50.664;4.564;2023-04-01T20:06:29;9.90;;;5.87;;
20749;SDS011;10535;50.664;4.564;2023-04-01T20:12:16;7.67;;;5.07;;
20749;SDS011;10535;50.664;4.564;2023-04-01T20:15:18;10.83;;;5.60;;
20749;SDS011;10535;50.664;4.564;2023-04-01T20:17:45;7.50;;;4.60;;
20749;SDS011;10535;50.664;4.564;2023-04-01T20:20:15;9.27;;;5.47;;
20749;SDS011;10535;50.664;4.564;2023-04-01T20:25:49;11.13;;;5.60;;
20749;SDS011;10535;50.664;4.564;2023-04-01T20:31:43;7.90;;;5.30;;
20749;SDS011;10535;50.664;4.564;2023-04-01T20:34:39;8.13;;;5.17;;
20749;SDS011;10535;50.664;4.564;2023-04-01T20:37:38;8.67;;;4.77;;
20749;SDS011;10535;50.664;4.564;2023-04-01T20:46:07;9.97;;;5.17;;
20749;SDS011;10535;50.664;4.564;2023-04-01T20:48:48;10.73;;;5.97;;
20749;SDS011;10535;50.664;4.564;2023-04-01T20:51:26;9.93;;;4.97;;
20749;SDS011;10535;50.664;4.564;2023-04-01T20:56:41;9.07;;;4.57;;
20749;SDS011;10535;50.664;4.564;2023-04-01T21:11:03;6.77;;;3.90;;
20749;SDS011;10535;50.664;4.564;2023-04-01T21:13:53;8.20;;;4.63;;
20749;SDS011;10535;50.664;4.564;2023-04-01T21:24:39;13.03;;;6.27;;
20749;SDS011;10535;50.664;4.564;2023-04-01T21:41:37;11.43;;;5.30;;
20749;SDS011;10535;50.664;4.564;2023-04-01T21:44:35;13.63;;;6.67;;
20749;SDS011;10535;50.664;4.564;2023-04-01T21:52:16;8.33;;;5.50;;
20749;SDS011;10535;50.664;4.564;2023-04-01T22:00:23;10.33;;;5.90;;
20749;SDS011;10535;50.664;4.564;2023-04-01T22:03:03;9.93;;;5.40;;
20749;SDS011;10535;50.664;4.564;2023-04-01T22:05:40;16.90;;;8.43;;
20749;SDS011;10535;50.664;4.564;2023-04-01T22:14:05;12.63;;;5.73;;
20749;SDS011;10535;50.664;4.564;2023-04-01T22:16:48;9.47;;;5.40;;
20749;SDS011;10535;50.664;4.564;2023-04-01T22:19:33;7.97;;;5.70;;
20749;SDS011;10535;50.664;4.564;2023-04-01T22:22:39;9.97;;;4.93;;
20749;SDS011;10535;50.664;4.564;2023-04-01T22:25:15;10.43;;;5.27;;
20749;SDS011;10535;50.664;4.564;2023-04-01T22:30:50;11.00;;;4.53;;
20749;SDS011;10535;50.664;4.564;2023-04-01T22:41:23;11.20;;;5.00;;
20749;SDS011;10535;50.664;4.564;2023-04-01T22:44:04;7.47;;;4.50;;
20749;SDS011;10535;50.664;4.564;2023-04-01T22:46:47;8.00;;;4.67;;
20749;SDS011;10535;50.664;4.564;2023-04-01T22:49:18;9.80;;;5.20;;
20749;SDS011;10535;50.664;4.564;2023-04-01T23:03:21;9.13;;;4.43;;
20749;SDS011;10535;50.664;4.564;2023-04-01T23:05:26;8.40;;;5.00;;
20749;SDS011;10535;50.664;4.564;2023-04-01T23:10:58;14.03;;;7.00;;
20749;SDS011;10535;50.664;4.564;2023-04-01T23:13:38;14.07;;;7.27;;
20749;SDS011;10535;50.664;4.564;2023-04-01T23:16:09;11.37;;;5.40;;
20749;SDS011;10535;50.664;4.564;2023-04-01T23:21:41;22.30;;;9.30;;
20749;SDS011;10535;50.664;4.564;2023-04-01T23:24:30;16.63;;;7.97;;
20749;SDS011;10535;50.664;4.564;2023-04-01T23:29:42;15.07;;;7.80;;
20749;SDS011;10535;50.664;4.564;2023-04-01T23:32:18;16.83;;;8.63;;
20749;SDS011;10535;50.664;4.564;2023-04-01T23:34:52;11.57;;;7.00;;
20749;SDS011;10535;50.664;4.564;2023-04-01T23:37:21;12.97;;;6.83;;
20749;SDS011;10535;50.664;4.564;2023-04-01T23:39:49;12.77;;;5.73;;
20749;SDS011;10535;50.664;4.564;2023-04-01T23:44:48;10.20;;;5.03;;
20749;SDS011;10535;50.664;4.564;2023-04-01T23:47:23;10.40;;;4.97;;
20749;SDS011;10535;50.664;4.564;2023-04-01T23:49:55;8.73;;;4.70;;
20749;SDS011;10535;50.664;4.564;2023-04-01T23:52:27;9.10;;;5.00;;
20749;SDS011;10535;50.664;4.564;2023-04-01T23:54:57;9.17;;;4.57;;
20749;SDS011;10535;50.664;4.564;2023-04-01T23:57:30;10.87;;;5.33;;
